sensor_id;sensor_type;location;lat;lon;timestamp;temperature;humidity
21678;DHT22;11000;50.360;7.582;2024-03-25T00:00:33;7.80;99.90
21678;DHT22;11000;50.360;7.582;2024-03-25T00:02:54;7.80;99.90
21678;DHT22;11000;50.360;7.582;2024-03-25T00:05:15;7.80;99.90
21678;DHT22;11000;50.360;7.582;2024-03-25T00:07:38;7.80;99.90
21678;DHT22;11000;50.360;7.582;2024-03-25T00:09:58;7.70;99.90
21678;DHT22;11000;50.360;7.582;2024-03-25T00:12:19;7.80;99.90
21678;DHT22;11000;50.360;7.582;2024-03-25T00:14:40;7.70;99.90
21678;DHT22;11000;50.360;7.582;2024-03-25T00:17:00;7.70;99.90
21678;DHT22;11000;50.360;7.582;2024-03-25T00:19:21;7.70;99.90
21678;DHT22;11000;50.360;7.582;2024-03-25T00:21:41;7.70;99.90
21678;DHT22;11000;50.360;7.582;2024-03-25T00:24:02;7.70;99.90
21678;DHT22;11000;50.360;7.582;2024-03-25T00:26:23;7.70;99.90
21678;DHT22;11000;50.360;7.582;2024-03-25T00:28:44;7.70;99.90
21678;DHT22;11000;50.360;7.582;2024-03-25T00:31:04;7.60;99.90
21678;DHT22;11000;50.360;7.582;2024-03-25T00:33:25;7.60;99.90
21678;DHT22;11000;50.360;7.582;2024-03-25T00:35:45;7.60;99.90
21678;DHT22;11000;50.360;7.582;2024-03-25T00:38:06;7.60;99.90
21678;DHT22;11000;50.360;7.582;2024-03-25T00:40:27;7.60;99.90
21678;DHT22;11000;50.360;7.582;2024-03-25T00:42:48;7.60;99.90
21678;DHT22;11000;50.360;7.582;2024-03-25T00:45:08;7.60;99.90
21678;DHT22;11000;50.360;7.582;2024-03-25T00:47:29;7.60;99.90
21678;DHT22;11000;50.360;7.582;2024-03-25T00:49:49;7.60;99.90
21678;DHT22;11000;50.360;7.582;2024-03-25T00:52:10;7.60;99.90
21678;DHT22;11000;50.360;7.582;2024-03-25T00:54:30;7.60;99.90
21678;DHT22;11000;50.360;7.582;2024-03-25T00:56:51;7.60;99.90
21678;DHT22;11000;50.360;7.582;2024-03-25T00:59:12;7.50;99.90
21678;DHT22;11000;50.360;7.582;2024-03-25T01:01:33;7.50;99.90
21678;DHT22;11000;50.360;7.582;2024-03-25T01:03:56;7.50;99.90
21678;DHT22;11000;50.360;7.582;2024-03-25T01:06:16;7.40;99.90
21678;DHT22;11000;50.360;7.582;2024-03-25T01:08:37;7.40;99.90
21678;DHT22;11000;50.360;7.582;2024-03-25T01:10:57;7.40;99.90
21678;DHT22;11000;50.360;7.582;2024-03-25T01:13:18;7.30;99.90
21678;DHT22;11000;50.360;7.582;2024-03-25T01:15:38;7.40;99.90
21678;DHT22;11000;50.360;7.582;2024-03-25T01:17:58;7.40;99.90
21678;DHT22;11000;50.360;7.582;2024-03-25T01:20:19;7.30;99.90
21678;DHT22;11000;50.360;7.582;2024-03-25T01:22:39;7.30;99.90
21678;DHT22;11000;50.360;7.582;2024-03-25T01:25:00;7.30;99.90
21678;DHT22;11000;50.360;7.582;2024-03-25T01:27:21;7.30;99.90
21678;DHT22;11000;50.360;7.582;2024-03-25T01:29:42;7.30;99.90
21678;DHT22;11000;50.360;7.582;2024-03-25T01:32:02;7.30;99.90
21678;DHT22;11000;50.360;7.582;2024-03-25T01:34:25;7.30;99.90
21678;DHT22;11000;50.360;7.582;2024-03-25T01:36:46;7.20;99.90
21678;DHT22;11000;50.360;7.582;2024-03-25T01:39:06;7.20;99.90
21678;DHT22;11000;50.360;7.582;2024-03-25T01:41:28;7.30;99.90
21678;DHT22;11000;50.360;7.582;2024-03-25T01:43:48;7.20;99.90
21678;DHT22;11000;50.360;7.582;2024-03-25T01:46:09;7.20;99.90
21678;DHT22;11000;50.360;7.582;2024-03-25T01:48:30;7.20;99.90
21678;DHT22;11000;50.360;7.582;2024-03-25T01:50:51;7.20;99.90
21678;DHT22;11000;50.360;7.582;2024-03-25T01:53:12;7.10;99.90
21678;DHT22;11000;50.360;7.582;2024-03-25T01:55:35;7.10;99.90
21678;DHT22;11000;50.360;7.582;2024-03-25T01:57:56;7.10;99.90
21678;DHT22;11000;50.360;7.582;2024-03-25T02:00:17;7.10;99.90
21678;DHT22;11000;50.360;7.582;2024-03-25T02:02:40;7.10;99.90
21678;DHT22;11000;50.360;7.582;2024-03-25T02:05:11;7.10;99.90
21678;DHT22;11000;50.360;7.582;2024-03-25T02:07:32;7.00;99.90
21678;DHT22;11000;50.360;7.582;2024-03-25T02:09:54;7.00;99.90
21678;DHT22;11000;50.360;7.582;2024-03-25T02:12:16;7.00;99.90
21678;DHT22;11000;50.360;7.582;2024-03-25T02:14:36;7.00;99.90
21678;DHT22;11000;50.360;7.582;2024-03-25T02:16:57;7.00;99.90
21678;DHT22;11000;50.360;7.582;2024-03-25T02:19:18;6.90;99.90
21678;DHT22;11000;50.360;7.582;2024-03-25T02:21:38;6.90;99.90
21678;DHT22;11000;50.360;7.582;2024-03-25T02:23:59;6.80;99.90
21678;DHT22;11000;50.360;7.582;2024-03-25T02:26:20;6.90;99.90
21678;DHT22;11000;50.360;7.582;2024-03-25T02:28:40;6.90;99.90
21678;DHT22;11000;50.360;7.582;2024-03-25T02:31:01;6.90;99.90
21678;DHT22;11000;50.360;7.582;2024-03-25T02:33:21;6.80;99.90
21678;DHT22;11000;50.360;7.582;2024-03-25T02:35:43;6.80;99.90
21678;DHT22;11000;50.360;7.582;2024-03-25T02:38:05;6.80;99.90
21678;DHT22;11000;50.360;7.582;2024-03-25T02:40:26;6.70;99.90
21678;DHT22;11000;50.360;7.582;2024-03-25T02:42:47;6.70;99.90
21678;DHT22;11000;50.360;7.582;2024-03-25T02:45:08;6.70;99.90
21678;DHT22;11000;50.360;7.582;2024-03-25T02:47:29;6.70;99.90
21678;DHT22;11000;50.360;7.582;2024-03-25T02:49:50;6.70;99.90
21678;DHT22;11000;50.360;7.582;2024-03-25T02:52:11;6.60;99.90
21678;DHT22;11000;50.360;7.582;2024-03-25T02:54:32;6.60;99.90
21678;DHT22;11000;50.360;7.582;2024-03-25T02:56:52;6.60;99.90
21678;DHT22;11000;50.360;7.582;2024-03-25T02:59:13;6.60;99.90
21678;DHT22;11000;50.360;7.582;2024-03-25T03:01:33;6.60;99.90
21678;DHT22;11000;50.360;7.582;2024-03-25T03:03:54;6.50;99.90
21678;DHT22;11000;50.360;7.582;2024-03-25T03:06:14;6.50;99.90
21678;DHT22;11000;50.360;7.582;2024-03-25T03:08:35;6.50;99.90
21678;DHT22;11000;50.360;7.582;2024-03-25T03:10:56;6.50;99.90
21678;DHT22;11000;50.360;7.582;2024-03-25T03:13:16;6.50;99.90
21678;DHT22;11000;50.360;7.582;2024-03-25T03:15:37;6.50;99.90
21678;DHT22;11000;50.360;7.582;2024-03-25T03:17:57;6.50;99.90
21678;DHT22;11000;50.360;7.582;2024-03-25T03:20:18;6.40;99.90
21678;DHT22;11000;50.360;7.582;2024-03-25T03:22:38;6.40;99.90
21678;DHT22;11000;50.360;7.582;2024-03-25T03:24:59;6.30;99.90
21678;DHT22;11000;50.360;7.582;2024-03-25T03:27:19;6.30;99.90
21678;DHT22;11000;50.360;7.582;2024-03-25T03:29:40;6.30;99.90
21678;DHT22;11000;50.360;7.582;2024-03-25T03:32:00;6.30;99.90
21678;DHT22;11000;50.360;7.582;2024-03-25T03:34:21;6.20;99.90
21678;DHT22;11000;50.360;7.582;2024-03-25T03:36:41;6.20;99.90
21678;DHT22;11000;50.360;7.582;2024-03-25T03:39:02;6.10;99.90
21678;DHT22;11000;50.360;7.582;2024-03-25T03:41:23;6.10;99.90
21678;DHT22;11000;50.360;7.582;2024-03-25T03:43:44;6.00;99.90
21678;DHT22;11000;50.360;7.582;2024-03-25T03:46:04;6.00;99.90
21678;DHT22;11000;50.360;7.582;2024-03-25T03:48:25;6.00;99.90
21678;DHT22;11000;50.360;7.582;2024-03-25T03:50:46;5.90;99.90
21678;DHT22;11000;50.360;7.582;2024-03-25T03:53:06;5.90;99.90
21678;DHT22;11000;50.360;7.582;2024-03-25T03:55:26;5.80;99.90
21678;DHT22;11000;50.360;7.582;2024-03-25T03:57:47;5.80;99.90
21678;DHT22;11000;50.360;7.582;2024-03-25T04:00:09;5.80;99.90
21678;DHT22;11000;50.360;7.582;2024-03-25T04:02:32;5.80;99.90
21678;DHT22;11000;50.360;7.582;2024-03-25T04:04:52;5.70;99.90
21678;DHT22;11000;50.360;7.582;2024-03-25T04:07:13;5.70;99.90
21678;DHT22;11000;50.360;7.582;2024-03-25T04:09:33;5.60;99.90
21678;DHT22;11000;50.360;7.582;2024-03-25T04:11:53;5.70;99.90
21678;DHT22;11000;50.360;7.582;2024-03-25T04:14:14;5.60;99.90
21678;DHT22;11000;50.360;7.582;2024-03-25T04:16:35;5.60;99.90
21678;DHT22;11000;50.360;7.582;2024-03-25T04:18:55;5.60;99.90
21678;DHT22;11000;50.360;7.582;2024-03-25T04:21:16;5.60;99.90
21678;DHT22;11000;50.360;7.582;2024-03-25T04:23:37;5.60;99.90
21678;DHT22;11000;50.360;7.582;2024-03-25T04:26:01;5.50;99.90
21678;DHT22;11000;50.360;7.582;2024-03-25T04:28:22;5.50;99.90
21678;DHT22;11000;50.360;7.582;2024-03-25T04:30:43;5.50;99.90
21678;DHT22;11000;50.360;7.582;2024-03-25T04:33:03;5.50;99.90
21678;DHT22;11000;50.360;7.582;2024-03-25T04:35:24;5.50;99.90
21678;DHT22;11000;50.360;7.582;2024-03-25T04:37:44;5.40;99.90
21678;DHT22;11000;50.360;7.582;2024-03-25T04:40:05;5.40;99.90
21678;DHT22;11000;50.360;7.582;2024-03-25T04:42:26;5.40;99.90
21678;DHT22;11000;50.360;7.582;2024-03-25T04:44:47;5.40;99.90
21678;DHT22;11000;50.360;7.582;2024-03-25T04:47:08;5.30;99.90
21678;DHT22;11000;50.360;7.582;2024-03-25T04:49:28;5.30;99.90
21678;DHT22;11000;50.360;7.582;2024-03-25T04:51:49;5.30;99.90
21678;DHT22;11000;50.360;7.582;2024-03-25T04:54:12;5.30;99.90
21678;DHT22;11000;50.360;7.582;2024-03-25T04:56:32;5.30;99.90
21678;DHT22;11000;50.360;7.582;2024-03-25T04:58:53;5.20;99.90
21678;DHT22;11000;50.360;7.582;2024-03-25T05:01:13;5.20;99.90
21678;DHT22;11000;50.360;7.582;2024-03-25T05:03:34;5.20;99.90
21678;DHT22;11000;50.360;7.582;2024-03-25T05:05:54;5.20;99.90
21678;DHT22;11000;50.360;7.582;2024-03-25T05:08:15;5.10;99.90
21678;DHT22;11000;50.360;7.582;2024-03-25T05:10:35;5.10;99.90
21678;DHT22;11000;50.360;7.582;2024-03-25T05:12:56;5.00;99.90
21678;DHT22;11000;50.360;7.582;2024-03-25T05:15:17;5.00;99.90
21678;DHT22;11000;50.360;7.582;2024-03-25T05:17:38;5.00;99.90
21678;DHT22;11000;50.360;7.582;2024-03-25T05:19:58;5.00;99.90
21678;DHT22;11000;50.360;7.582;2024-03-25T05:22:19;5.00;99.90
21678;DHT22;11000;50.360;7.582;2024-03-25T05:24:39;5.00;99.90
21678;DHT22;11000;50.360;7.582;2024-03-25T05:27:00;5.00;99.90
21678;DHT22;11000;50.360;7.582;2024-03-25T05:29:21;5.00;99.90
21678;DHT22;11000;50.360;7.582;2024-03-25T05:31:59;5.00;99.90
21678;DHT22;11000;50.360;7.582;2024-03-25T05:34:19;5.00;99.90
21678;DHT22;11000;50.360;7.582;2024-03-25T05:36:40;5.00;99.90
21678;DHT22;11000;50.360;7.582;2024-03-25T05:39:00;5.00;99.90
21678;DHT22;11000;50.360;7.582;2024-03-25T05:41:21;5.00;99.90
21678;DHT22;11000;50.360;7.582;2024-03-25T05:43:41;5.00;99.90
21678;DHT22;11000;50.360;7.582;2024-03-25T05:46:02;5.00;99.90
21678;DHT22;11000;50.360;7.582;2024-03-25T05:48:26;5.00;99.90
21678;DHT22;11000;50.360;7.582;2024-03-25T05:51:04;4.90;99.90
21678;DHT22;11000;50.360;7.582;2024-03-25T05:53:28;4.90;99.90
21678;DHT22;11000;50.360;7.582;2024-03-25T05:55:49;4.90;99.90
21678;DHT22;11000;50.360;7.582;2024-03-25T05:58:09;5.00;99.90
21678;DHT22;11000;50.360;7.582;2024-03-25T06:00:30;5.00;99.90
21678;DHT22;11000;50.360;7.582;2024-03-25T06:02:53;5.00;99.90
21678;DHT22;11000;50.360;7.582;2024-03-25T06:05:14;5.00;99.90
21678;DHT22;11000;50.360;7.582;2024-03-25T06:07:34;5.00;99.90
21678;DHT22;11000;50.360;7.582;2024-03-25T06:09:55;5.00;99.90
21678;DHT22;11000;50.360;7.582;2024-03-25T06:12:15;5.00;99.90
21678;DHT22;11000;50.360;7.582;2024-03-25T06:14:36;5.00;99.90
21678;DHT22;11000;50.360;7.582;2024-03-25T06:16:58;5.10;99.90
21678;DHT22;11000;50.360;7.582;2024-03-25T06:19:18;5.20;99.90
21678;DHT22;11000;50.360;7.582;2024-03-25T06:21:39;5.20;99.90
21678;DHT22;11000;50.360;7.582;2024-03-25T06:23:59;5.20;99.90
21678;DHT22;11000;50.360;7.582;2024-03-25T06:26:20;5.30;99.90
21678;DHT22;11000;50.360;7.582;2024-03-25T06:28:40;5.40;99.90
21678;DHT22;11000;50.360;7.582;2024-03-25T06:31:01;5.40;99.90
21678;DHT22;11000;50.360;7.582;2024-03-25T06:33:40;5.50;99.90
21678;DHT22;11000;50.360;7.582;2024-03-25T06:36:19;5.50;99.90
21678;DHT22;11000;50.360;7.582;2024-03-25T06:38:40;5.60;99.90
21678;DHT22;11000;50.360;7.582;2024-03-25T06:41:00;5.60;99.90
21678;DHT22;11000;50.360;7.582;2024-03-25T06:43:21;5.70;99.90
21678;DHT22;11000;50.360;7.582;2024-03-25T06:45:41;6.10;99.90
21678;DHT22;11000;50.360;7.582;2024-03-25T06:48:02;6.60;99.90
21678;DHT22;11000;50.360;7.582;2024-03-25T06:50:22;7.00;99.90
21678;DHT22;11000;50.360;7.582;2024-03-25T06:52:43;7.50;99.90
21678;DHT22;11000;50.360;7.582;2024-03-25T06:55:04;7.90;99.90
21678;DHT22;11000;50.360;7.582;2024-03-25T06:57:25;8.20;99.90
21678;DHT22;11000;50.360;7.582;2024-03-25T06:59:45;8.50;99.90
21678;DHT22;11000;50.360;7.582;2024-03-25T07:02:06;8.70;99.90
21678;DHT22;11000;50.360;7.582;2024-03-25T07:04:27;9.00;99.90
21678;DHT22;11000;50.360;7.582;2024-03-25T07:06:48;9.20;99.90
21678;DHT22;11000;50.360;7.582;2024-03-25T07:09:08;9.30;99.90
21678;DHT22;11000;50.360;7.582;2024-03-25T07:11:31;9.50;99.90
21678;DHT22;11000;50.360;7.582;2024-03-25T07:13:52;9.70;99.90
21678;DHT22;11000;50.360;7.582;2024-03-25T07:16:12;9.90;99.90
21678;DHT22;11000;50.360;7.582;2024-03-25T07:18:32;10.20;99.90
21678;DHT22;11000;50.360;7.582;2024-03-25T07:20:53;10.30;99.90
21678;DHT22;11000;50.360;7.582;2024-03-25T07:23:14;10.30;99.90
21678;DHT22;11000;50.360;7.582;2024-03-25T07:25:35;10.40;99.90
21678;DHT22;11000;50.360;7.582;2024-03-25T07:27:56;10.30;99.90
21678;DHT22;11000;50.360;7.582;2024-03-25T07:30:16;10.20;99.90
21678;DHT22;11000;50.360;7.582;2024-03-25T07:32:37;10.30;99.90
21678;DHT22;11000;50.360;7.582;2024-03-25T07:34:57;10.40;99.90
21678;DHT22;11000;50.360;7.582;2024-03-25T07:37:18;10.60;99.90
21678;DHT22;11000;50.360;7.582;2024-03-25T07:39:38;10.60;99.90
21678;DHT22;11000;50.360;7.582;2024-03-25T07:41:59;10.70;99.90
21678;DHT22;11000;50.360;7.582;2024-03-25T07:44:19;10.70;99.90
21678;DHT22;11000;50.360;7.582;2024-03-25T07:46:40;11.00;99.90
21678;DHT22;11000;50.360;7.582;2024-03-25T07:49:00;11.00;99.90
21678;DHT22;11000;50.360;7.582;2024-03-25T07:51:21;11.20;99.90
21678;DHT22;11000;50.360;7.582;2024-03-25T07:53:41;11.10;99.90
21678;DHT22;11000;50.360;7.582;2024-03-25T07:56:02;11.10;99.90
21678;DHT22;11000;50.360;7.582;2024-03-25T07:58:25;11.00;99.90
21678;DHT22;11000;50.360;7.582;2024-03-25T08:00:46;10.90;99.90
21678;DHT22;11000;50.360;7.582;2024-03-25T08:03:06;10.90;99.90
21678;DHT22;11000;50.360;7.582;2024-03-25T08:05:28;11.00;99.90
21678;DHT22;11000;50.360;7.582;2024-03-25T08:07:49;11.00;99.90
21678;DHT22;11000;50.360;7.582;2024-03-25T08:10:10;11.10;99.90
21678;DHT22;11000;50.360;7.582;2024-03-25T08:12:30;10.90;99.90
21678;DHT22;11000;50.360;7.582;2024-03-25T08:14:50;10.90;99.90
21678;DHT22;11000;50.360;7.582;2024-03-25T08:17:11;10.80;99.90
21678;DHT22;11000;50.360;7.582;2024-03-25T08:19:31;11.00;99.90
21678;DHT22;11000;50.360;7.582;2024-03-25T08:21:52;10.80;99.90
21678;DHT22;11000;50.360;7.582;2024-03-25T08:24:14;10.70;99.90
21678;DHT22;11000;50.360;7.582;2024-03-25T08:26:36;10.90;99.90
21678;DHT22;11000;50.360;7.582;2024-03-25T08:28:56;11.00;99.90
21678;DHT22;11000;50.360;7.582;2024-03-25T08:31:16;11.00;99.90
21678;DHT22;11000;50.360;7.582;2024-03-25T08:33:37;10.70;99.90
21678;DHT22;11000;50.360;7.582;2024-03-25T08:35:57;10.70;99.90
21678;DHT22;11000;50.360;7.582;2024-03-25T08:38:18;10.60;99.90
21678;DHT22;11000;50.360;7.582;2024-03-25T08:40:38;10.40;99.90
21678;DHT22;11000;50.360;7.582;2024-03-25T08:43:00;10.30;99.90
21678;DHT22;11000;50.360;7.582;2024-03-25T08:45:21;10.30;99.90
21678;DHT22;11000;50.360;7.582;2024-03-25T08:47:41;10.40;99.90
21678;DHT22;11000;50.360;7.582;2024-03-25T08:50:02;10.60;99.90
21678;DHT22;11000;50.360;7.582;2024-03-25T08:52:23;10.80;99.90
21678;DHT22;11000;50.360;7.582;2024-03-25T08:54:44;10.80;99.90
21678;DHT22;11000;50.360;7.582;2024-03-25T08:57:04;10.60;99.90
21678;DHT22;11000;50.360;7.582;2024-03-25T08:59:25;10.60;99.90
21678;DHT22;11000;50.360;7.582;2024-03-25T09:01:45;10.40;99.90
21678;DHT22;11000;50.360;7.582;2024-03-25T09:04:06;10.30;99.90
21678;DHT22;11000;50.360;7.582;2024-03-25T09:06:27;10.30;99.90
21678;DHT22;11000;50.360;7.582;2024-03-25T09:08:48;10.50;99.90
21678;DHT22;11000;50.360;7.582;2024-03-25T09:11:27;10.60;99.90
21678;DHT22;11000;50.360;7.582;2024-03-25T09:13:47;10.70;99.90
21678;DHT22;11000;50.360;7.582;2024-03-25T09:16:08;10.60;99.90
21678;DHT22;11000;50.360;7.582;2024-03-25T09:18:28;10.20;99.90
21678;DHT22;11000;50.360;7.582;2024-03-25T09:20:49;9.90;99.90
21678;DHT22;11000;50.360;7.582;2024-03-25T09:23:09;9.80;99.90
21678;DHT22;11000;50.360;7.582;2024-03-25T09:25:30;9.90;99.90
21678;DHT22;11000;50.360;7.582;2024-03-25T09:27:51;9.80;99.90
21678;DHT22;11000;50.360;7.582;2024-03-25T09:30:12;9.60;99.90
21678;DHT22;11000;50.360;7.582;2024-03-25T09:32:32;9.90;99.90
21678;DHT22;11000;50.360;7.582;2024-03-25T09:34:53;9.80;99.90
21678;DHT22;11000;50.360;7.582;2024-03-25T09:37:13;10.00;99.90
21678;DHT22;11000;50.360;7.582;2024-03-25T09:39:34;10.20;99.90
21678;DHT22;11000;50.360;7.582;2024-03-25T09:41:55;10.10;99.90
21678;DHT22;11000;50.360;7.582;2024-03-25T09:44:17;10.20;99.90
21678;DHT22;11000;50.360;7.582;2024-03-25T09:46:39;10.00;99.90
21678;DHT22;11000;50.360;7.582;2024-03-25T09:49:01;9.90;99.90
21678;DHT22;11000;50.360;7.582;2024-03-25T09:51:25;9.90;99.90
21678;DHT22;11000;50.360;7.582;2024-03-25T09:53:46;10.20;99.90
21678;DHT22;11000;50.360;7.582;2024-03-25T09:56:07;10.30;99.90
21678;DHT22;11000;50.360;7.582;2024-03-25T09:58:28;10.30;99.90
21678;DHT22;11000;50.360;7.582;2024-03-25T10:00:50;10.30;99.90
21678;DHT22;11000;50.360;7.582;2024-03-25T10:03:11;10.40;99.90
21678;DHT22;11000;50.360;7.582;2024-03-25T10:05:31;10.60;99.90
21678;DHT22;11000;50.360;7.582;2024-03-25T10:07:52;10.60;99.90
21678;DHT22;11000;50.360;7.582;2024-03-25T10:10:13;10.60;99.90
21678;DHT22;11000;50.360;7.582;2024-03-25T10:12:36;10.80;99.90
21678;DHT22;11000;50.360;7.582;2024-03-25T10:14:57;10.60;99.90
21678;DHT22;11000;50.360;7.582;2024-03-25T10:17:18;10.80;99.90
21678;DHT22;11000;50.360;7.582;2024-03-25T10:19:38;10.40;99.90
21678;DHT22;11000;50.360;7.582;2024-03-25T10:22:05;10.20;99.90
21678;DHT22;11000;50.360;7.582;2024-03-25T10:24:26;10.00;99.90
21678;DHT22;11000;50.360;7.582;2024-03-25T10:26:49;10.40;99.90
21678;DHT22;11000;50.360;7.582;2024-03-25T10:29:09;10.90;99.90
21678;DHT22;11000;50.360;7.582;2024-03-25T10:31:33;10.80;99.90
21678;DHT22;11000;50.360;7.582;2024-03-25T10:33:54;10.30;99.90
21678;DHT22;11000;50.360;7.582;2024-03-25T10:36:15;10.30;99.90
21678;DHT22;11000;50.360;7.582;2024-03-25T10:38:36;10.20;99.90
21678;DHT22;11000;50.360;7.582;2024-03-25T10:40:57;10.00;99.90
21678;DHT22;11000;50.360;7.582;2024-03-25T10:43:19;10.00;99.90
21678;DHT22;11000;50.360;7.582;2024-03-25T10:45:47;9.90;99.90
21678;DHT22;11000;50.360;7.582;2024-03-25T10:48:17;9.90;99.90
21678;DHT22;11000;50.360;7.582;2024-03-25T10:50:38;10.30;99.90
21678;DHT22;11000;50.360;7.582;2024-03-25T10:53:00;10.40;99.90
21678;DHT22;11000;50.360;7.582;2024-03-25T10:55:22;10.60;99.90
21678;DHT22;11000;50.360;7.582;2024-03-25T10:57:43;10.60;99.90
21678;DHT22;11000;50.360;7.582;2024-03-25T11:00:04;10.70;99.90
21678;DHT22;11000;50.360;7.582;2024-03-25T11:02:24;10.80;99.90
21678;DHT22;11000;50.360;7.582;2024-03-25T11:04:45;11.10;99.90
21678;DHT22;11000;50.360;7.582;2024-03-25T11:07:10;11.40;99.90
21678;DHT22;11000;50.360;7.582;2024-03-25T11:09:31;11.20;99.90
21678;DHT22;11000;50.360;7.582;2024-03-25T11:11:53;11.00;99.90
21678;DHT22;11000;50.360;7.582;2024-03-25T11:14:16;11.10;99.90
21678;DHT22;11000;50.360;7.582;2024-03-25T11:16:37;11.10;99.90
21678;DHT22;11000;50.360;7.582;2024-03-25T11:19:02;11.20;99.90
21678;DHT22;11000;50.360;7.582;2024-03-25T11:21:26;11.70;99.90
21678;DHT22;11000;50.360;7.582;2024-03-25T11:23:46;11.70;99.00
21678;DHT22;11000;50.360;7.582;2024-03-25T11:28:40;12.20;97.10
21678;DHT22;11000;50.360;7.582;2024-03-25T11:31:01;12.30;95.80
21678;DHT22;11000;50.360;7.582;2024-03-25T11:33:23;12.20;96.00
21678;DHT22;11000;50.360;7.582;2024-03-25T11:35:45;12.00;96.40
21678;DHT22;11000;50.360;7.582;2024-03-25T11:38:05;12.30;95.70
21678;DHT22;11000;50.360;7.582;2024-03-25T11:40:25;12.60;96.90
21678;DHT22;11000;50.360;7.582;2024-03-25T11:42:46;12.70;94.20
21678;DHT22;11000;50.360;7.582;2024-03-25T11:45:07;12.80;91.30
21678;DHT22;11000;50.360;7.582;2024-03-25T11:47:32;12.40;92.20
21678;DHT22;11000;50.360;7.582;2024-03-25T11:49:53;12.20;91.40
21678;DHT22;11000;50.360;7.582;2024-03-25T11:52:14;12.30;91.50
21678;DHT22;11000;50.360;7.582;2024-03-25T11:54:35;12.40;92.40
21678;DHT22;11000;50.360;7.582;2024-03-25T11:56:56;12.30;92.20
21678;DHT22;11000;50.360;7.582;2024-03-25T11:59:17;12.40;91.80
21678;DHT22;11000;50.360;7.582;2024-03-25T12:01:38;12.20;91.80
21678;DHT22;11000;50.360;7.582;2024-03-25T12:04:12;12.60;91.70
21678;DHT22;11000;50.360;7.582;2024-03-25T12:06:33;12.00;91.30
21678;DHT22;11000;50.360;7.582;2024-03-25T12:08:54;12.30;91.50
21678;DHT22;11000;50.360;7.582;2024-03-25T12:11:34;12.30;91.40
21678;DHT22;11000;50.360;7.582;2024-03-25T12:13:55;12.30;92.90
21678;DHT22;11000;50.360;7.582;2024-03-25T12:16:16;12.80;91.90
21678;DHT22;11000;50.360;7.582;2024-03-25T12:18:39;13.60;90.10
21678;DHT22;11000;50.360;7.582;2024-03-25T12:21:04;14.30;86.40
21678;DHT22;11000;50.360;7.582;2024-03-25T12:23:29;14.70;84.50
21678;DHT22;11000;50.360;7.582;2024-03-25T12:25:50;14.90;82.40
21678;DHT22;11000;50.360;7.582;2024-03-25T12:28:11;15.30;82.30
21678;DHT22;11000;50.360;7.582;2024-03-25T12:30:32;15.50;80.80
21678;DHT22;11000;50.360;7.582;2024-03-25T12:32:54;16.00;79.60
21678;DHT22;11000;50.360;7.582;2024-03-25T12:35:16;16.40;78.40
21678;DHT22;11000;50.360;7.582;2024-03-25T12:37:37;16.70;74.70
21678;DHT22;11000;50.360;7.582;2024-03-25T12:39:58;16.50;73.80
21678;DHT22;11000;50.360;7.582;2024-03-25T12:42:19;16.00;71.20
21678;DHT22;11000;50.360;7.582;2024-03-25T12:44:41;16.20;74.00
21678;DHT22;11000;50.360;7.582;2024-03-25T12:47:02;15.80;70.20
21678;DHT22;11000;50.360;7.582;2024-03-25T12:49:22;15.80;72.00
21678;DHT22;11000;50.360;7.582;2024-03-25T12:51:43;15.60;72.00
21678;DHT22;11000;50.360;7.582;2024-03-25T12:54:03;16.30;69.00
21678;DHT22;11000;50.360;7.582;2024-03-25T12:56:24;16.30;70.00
21678;DHT22;11000;50.360;7.582;2024-03-25T12:58:45;16.20;69.60
21678;DHT22;11000;50.360;7.582;2024-03-25T13:01:05;16.30;66.70
21678;DHT22;11000;50.360;7.582;2024-03-25T13:03:26;16.50;66.20
21678;DHT22;11000;50.360;7.582;2024-03-25T13:05:46;16.80;66.50
21678;DHT22;11000;50.360;7.582;2024-03-25T13:08:07;16.90;64.40
21678;DHT22;11000;50.360;7.582;2024-03-25T13:10:29;15.70;64.10
21678;DHT22;11000;50.360;7.582;2024-03-25T13:12:49;15.20;67.50
21678;DHT22;11000;50.360;7.582;2024-03-25T13:15:10;15.00;68.20
21678;DHT22;11000;50.360;7.582;2024-03-25T13:17:31;14.20;67.90
21678;DHT22;11000;50.360;7.582;2024-03-25T13:19:51;13.80;70.20
21678;DHT22;11000;50.360;7.582;2024-03-25T13:22:12;13.70;68.50
21678;DHT22;11000;50.360;7.582;2024-03-25T13:24:32;13.40;69.60
21678;DHT22;11000;50.360;7.582;2024-03-25T13:26:53;13.60;70.80
21678;DHT22;11000;50.360;7.582;2024-03-25T13:29:13;13.80;72.40
21678;DHT22;11000;50.360;7.582;2024-03-25T13:31:34;14.10;69.60
21678;DHT22;11000;50.360;7.582;2024-03-25T13:33:54;14.20;68.90
21678;DHT22;11000;50.360;7.582;2024-03-25T13:36:15;14.10;68.20
21678;DHT22;11000;50.360;7.582;2024-03-25T13:38:35;13.90;69.10
21678;DHT22;11000;50.360;7.582;2024-03-25T13:40:56;13.80;67.80
21678;DHT22;11000;50.360;7.582;2024-03-25T13:43:16;13.90;68.20
21678;DHT22;11000;50.360;7.582;2024-03-25T13:45:46;14.60;69.00
21678;DHT22;11000;50.360;7.582;2024-03-25T13:48:07;15.50;64.80
21678;DHT22;11000;50.360;7.582;2024-03-25T13:50:28;15.70;63.50
21678;DHT22;11000;50.360;7.582;2024-03-25T13:52:48;15.10;62.60
21678;DHT22;11000;50.360;7.582;2024-03-25T13:55:09;14.70;64.80
21678;DHT22;11000;50.360;7.582;2024-03-25T13:57:29;14.20;65.30
21678;DHT22;11000;50.360;7.582;2024-03-25T13:59:50;13.90;65.90
21678;DHT22;11000;50.360;7.582;2024-03-25T14:02:11;14.50;71.40
21678;DHT22;11000;50.360;7.582;2024-03-25T14:04:31;15.20;67.50
21678;DHT22;11000;50.360;7.582;2024-03-25T14:06:52;15.50;63.20
21678;DHT22;11000;50.360;7.582;2024-03-25T14:09:26;15.00;65.20
21678;DHT22;11000;50.360;7.582;2024-03-25T14:11:47;15.10;64.80
21678;DHT22;11000;50.360;7.582;2024-03-25T14:14:07;15.20;65.10
21678;DHT22;11000;50.360;7.582;2024-03-25T14:16:28;14.50;63.60
21678;DHT22;11000;50.360;7.582;2024-03-25T14:18:49;14.30;66.30
21678;DHT22;11000;50.360;7.582;2024-03-25T14:21:09;14.70;66.30
21678;DHT22;11000;50.360;7.582;2024-03-25T14:23:30;14.90;65.50
21678;DHT22;11000;50.360;7.582;2024-03-25T14:25:50;14.60;65.20
21678;DHT22;11000;50.360;7.582;2024-03-25T14:28:11;14.40;66.20
21678;DHT22;11000;50.360;7.582;2024-03-25T14:30:31;14.70;68.90
21678;DHT22;11000;50.360;7.582;2024-03-25T14:32:52;14.90;67.00
21678;DHT22;11000;50.360;7.582;2024-03-25T14:35:15;14.90;65.30
21678;DHT22;11000;50.360;7.582;2024-03-25T14:37:36;14.30;65.60
21678;DHT22;11000;50.360;7.582;2024-03-25T14:39:56;14.30;67.60
21678;DHT22;11000;50.360;7.582;2024-03-25T14:42:19;14.60;70.70
21678;DHT22;11000;50.360;7.582;2024-03-25T14:44:39;14.20;66.10
21678;DHT22;11000;50.360;7.582;2024-03-25T14:47:00;14.10;65.50
21678;DHT22;11000;50.360;7.582;2024-03-25T14:49:20;14.10;64.80
21678;DHT22;11000;50.360;7.582;2024-03-25T14:51:41;13.70;64.60
21678;DHT22;11000;50.360;7.582;2024-03-25T14:54:02;13.80;65.50
21678;DHT22;11000;50.360;7.582;2024-03-25T14:56:23;14.00;65.40
21678;DHT22;11000;50.360;7.582;2024-03-25T14:58:44;14.20;63.40
21678;DHT22;11000;50.360;7.582;2024-03-25T15:01:05;14.20;62.20